Time;durP1;ratioP1;P1;durP2;ratioP2;P2;SDS_P1;SDS_P2;PMS_P1;PMS_P2;Temp;Humidity;BMP_temperature;BMP_pressure;BME280_temperature;BME280_humidity;BME280_pressure;Samples;Min_cycle;Max_cycle;Signal;HPM_P1;HPM_P2
2022/11/09 00:00:30;;;;;;;8.63;3.50;;;;;;;;;;5089591;28;20974;-78
2022/11/09 00:02:55;;;;;;;8.05;3.92;;;12.10;99.90;;;;;;5088803;28;20414;-78
2022/11/09 00:05:21;;;;;;;6.20;3.30;;;;;;;;;;5071476;28;20517;-78
2022/11/09 00:07:47;;;;;;;8.27;3.35;;;;;;;;;;5089574;28;20872;-78
2022/11/09 00:10:13;;;;;;;8.85;3.72;;;;;;;;;;5072805;28;20845;-79
2022/11/09 00:12:39;;;;;;;7.65;3.20;;;;;;;;;;5089991;28;20421;-78
2022/11/09 00:15:06;;;;;;;6.30;3.40;;;;;;;;;;5088511;28;20559;-79
2022/11/09 00:17:32;;;;;;;6.80;3.05;;;;;;;;;;5083882;28;20418;-79
2022/11/09 00:19:58;;;;;;;7.25;3.13;;;;;;;;;;5073327;28;20905;-78
2022/11/09 00:22:24;;;;;;;7.57;3.33;;;;;;;;;;5089806;28;20902;-79
2022/11/09 00:24:50;;;;;;;7.85;3.55;;;;;;;;;;5087351;28;20981;-79
2022/11/09 00:27:16;;;;;;;5.55;3.00;;;;;;;;;;5088540;28;20415;-79
2022/11/09 00:29:42;;;;;;;7.77;3.00;;;;;;;;;;5088959;28;20453;-79
2022/11/09 00:32:08;;;;;;;6.82;3.40;;;;;;;;;;5103863;28;20418;-79
2022/11/09 00:34:34;;;;;;;9.00;3.88;;;;;;;;;;5107125;28;20427;-79
2022/11/09 00:37:00;;;;;;;7.10;3.38;;;;;;;;;;5108828;28;20423;-77
2022/11/09 00:39:26;;;;;;;8.15;3.90;;;;;;;;;;5088883;28;20766;-77
2022/11/09 00:41:53;;;;;;;7.47;3.75;;;;;;;;;;5072463;28;20416;-78
2022/11/09 00:44:19;;;;;;;8.10;3.80;;;;;;;;;;5092067;28;20471;-79
2022/11/09 00:46:45;;;;;;;8.63;3.58;;;;;;;;;;5107557;28;20883;-78
2022/11/09 00:49:11;;;;;;;7.45;3.63;;;;;;;;;;5110535;28;21015;-79
2022/11/09 00:51:37;;;;;;;9.70;3.60;;;;;;;;;;5111315;28;20426;-78
2022/11/09 00:54:03;;;;;;;8.25;4.00;;;;;;;;;;5112076;28;20420;-78
2022/11/09 00:56:29;;;;;;;8.45;3.83;;;;;;;;;;5077705;28;20914;-78
2022/11/09 00:58:55;;;;;;;10.30;3.95;;;;;;;;;;5108680;28;20434;-78
2022/11/09 01:01:22;;;;;;;8.40;3.92;;;;;;;;;;5089156;28;20421;-78
2022/11/09 01:03:48;;;;;;;7.45;3.80;;;;;;;;;;5110947;28;20424;-78
2022/11/09 01:06:17;;;;;;;9.18;3.95;;;12.00;99.90;;;;;;5112316;28;20473;-78
2022/11/09 01:08:44;;;;;;;8.38;3.97;;;;;;;;;;5110459;28;20415;-78
2022/11/09 01:11:10;;;;;;;10.35;3.80;;;;;;;;;;5095191;28;20416;-78
2022/11/09 01:13:37;;;;;;;8.07;3.90;;;;;;;;;;5111758;28;20416;-79
2022/11/09 01:16:05;;;;;;;10.20;3.95;;;;;;;;;;5112222;28;20427;-78
2022/11/09 01:18:31;;;;;;;9.18;3.50;;;;;;;;;;5093851;28;20423;-79
2022/11/09 01:20:57;;;;;;;6.93;3.33;;;;;;;;;;5111950;28;20444;-78
2022/11/09 01:23:23;;;;;;;8.07;3.23;;;;;;;;;;5110829;28;20422;-78
2022/11/09 01:25:57;;;;;;;10.63;3.47;;;;;;;;;;5110745;28;20416;-78
2022/11/09 01:28:23;;;;;;;9.20;3.50;;;12.50;99.90;;;;;;5093595;28;20429;-78
2022/11/09 01:30:49;;;;;;;9.40;3.42;;;;;;;;;;5111797;28;20448;-78
2022/11/09 01:33:15;;;;;;;10.20;3.45;;;;;;;;;;5093127;28;20775;-79
2022/11/09 01:35:41;;;;;;;8.02;3.20;;;;;;;;;;5110842;28;20943;-78
2022/11/09 01:38:07;;;;;;;8.75;3.25;;;12.70;99.90;;;;;;5111656;28;20463;-79
2022/11/09 01:40:34;;;;;;;7.38;3.10;;;;;;;;;;5107739;28;20760;-79
2022/11/09 01:43:27;;;;;;;11.18;3.42;;;;;;;;;;5094318;28;20416;-79
2022/11/09 01:45:59;;;;;;;11.27;3.67;;;;;;;;;;5119720;27;20916;-79
2022/11/09 01:48:33;;;;;;;10.95;3.35;;;;;;;;;;5095331;28;20396;-78
2022/11/09 01:51:02;;;;;;;9.57;3.47;;;;;;;;;;5092347;28;20442;-79
2022/11/09 01:53:36;;;;;;;12.15;3.72;;;12.70;99.90;;;;;;5110423;28;20503;-79
2022/11/09 01:56:04;;;;;;;8.17;3.20;;;;;;;;;;5109820;28;20424;-79
2022/11/09 01:58:33;;;;;;;11.93;3.67;;;;;;;;;;5110386;28;20438;-79
2022/11/09 02:01:00;;;;;;;10.30;3.75;;;;;;;;;;5108714;27;20424;-79
2022/11/09 02:03:32;;;;;;;8.00;3.20;;;;;;;;;;5110813;28;20409;-79
2022/11/09 02:06:02;;;;;;;10.57;3.25;;;12.80;99.90;;;;;;5110129;28;20420;-78
2022/11/09 02:08:28;;;;;;;14.87;3.40;;;;;;;;;;5094935;28;20439;-78
2022/11/09 02:10:58;;;;;;;11.93;3.15;;;;;;;;;;5092460;28;20416;-79
2022/11/09 02:13:26;;;;;;;7.80;3.10;;;;;;;;;;5094061;28;20411;-79
2022/11/09 02:15:52;;;;;;;9.57;2.97;;;;;;;;;;5098727;28;20420;-79
2022/11/09 02:18:19;;;;;;;11.00;3.13;;;;;;;;;;5111960;28;20396;-78
2022/11/09 02:20:56;;;;;;;8.27;3.13;;;12.60;99.90;;;;;;5108739;28;20533;-78
2022/11/09 02:23:23;;;;;;;11.35;3.25;;;;;;;;;;5110767;28;20401;-78
2022/11/09 02:26:00;;;;;;;8.05;3.00;;;12.20;99.90;;;;;;5109297;28;20479;-78
2022/11/09 02:28:27;;;;;;;10.77;3.30;;;;;;;;;;5128188;27;20768;-79
2022/11/09 02:30:55;;;;;;;12.07;3.42;;;12.30;99.90;;;;;;5108662;28;20741;-78
2022/11/09 02:33:21;;;;;;;10.93;3.50;;;;;;;;;;5127317;27;20416;-78
2022/11/09 02:35:47;;;;;;;9.20;3.35;;;;;;;;;;5071127;28;20420;-79
2022/11/09 02:38:14;;;;;;;10.70;3.25;;;;;;;;;;5090526;28;20417;-78
2022/11/09 02:40:44;;;;;;;8.68;2.90;;;12.50;99.90;;;;;;5089741;28;20543;-78
2022/11/09 02:43:13;;;;;;;12.33;3.00;;;12.30;99.90;;;;;;5073582;28;20898;-78
2022/11/09 02:45:39;;;;;;;11.95;3.13;;;;;;;;;;5088260;28;20422;-77
2022/11/09 02:48:08;;;;;;;13.13;3.38;;;;;;;;;;5087170;28;20424;-78
2022/11/09 02:50:35;;;;;;;13.20;3.30;;;12.20;99.90;;;;;;5078116;28;20468;-78
2022/11/09 02:53:02;;;;;;;10.80;3.10;;;;;;;;;;5073169;28;20968;-79
2022/11/09 02:55:28;;;;;;;9.63;3.25;;;;;;;;;;5104851;28;20431;-78
2022/11/09 02:57:54;;;;;;;10.05;3.05;;;;;;;;;;5052729;28;20420;-79
2022/11/09 03:00:20;;;;;;;10.35;3.00;;;;;;;;;;5104305;28;20417;-78
2022/11/09 03:02:46;;;;;;;10.35;2.97;;;;;;;;;;5057840;28;20614;-78
2022/11/09 03:05:12;;;;;;;10.50;3.00;;;;;;;;;;5103260;28;20428;-79
2022/11/09 03:07:38;;;;;;;8.18;2.80;;;;;;;;;;5106208;28;20526;-78
2022/11/09 03:10:04;;;;;;;10.82;3.03;;;;;;;;;;5102984;28;20423;-78
2022/11/09 03:12:31;;;;;;;10.43;3.17;;;;;;;;;;5106103;28;20426;-78
2022/11/09 03:14:58;;;;;;;11.68;2.80;;;;;;;;;;5105292;28;20548;-77
2022/11/09 03:17:24;;;;;;;8.23;2.55;;;;;;;;;;5105067;28;20418;-78
2022/11/09 03:19:50;;;;;;;10.43;2.97;;;;;;;;;;5082588;28;20538;-78
2022/11/09 03:22:16;;;;;;;11.55;2.90;;;;;;;;;;5105821;28;20422;-78
2022/11/09 03:24:42;;;;;;;9.35;2.72;;;;;;;;;;5104758;28;20422;-78
2022/11/09 03:27:08;;;;;;;9.27;2.75;;;;;;;;;;5106554;28;20925;-78
2022/11/09 03:29:34;;;;;;;12.05;3.28;;;;;;;;;;5087263;28;20483;-78
2022/11/09 03:32:00;;;;;;;12.20;3.10;;;;;;;;;;5105635;28;21119;-78
2022/11/09 03:34:26;;;;;;;9.55;2.80;;;;;;;;;;5107300;28;20425;-78
2022/11/09 03:36:52;;;;;;;12.03;3.07;;;;;;;;;;5111620;28;21954;-78
2022/11/09 03:39:19;;;;;;;9.63;2.90;;;;;;;;;;5096261;28;20396;-78
2022/11/09 03:41:45;;;;;;;9.27;2.70;;;;;;;;;;5088297;28;20425;-78
2022/11/09 03:44:11;;;;;;;11.38;2.90;;;;;;;;;;5114083;28;20391;-79
2022/11/09 03:46:37;;;;;;;10.23;2.77;;;;;;;;;;5111623;28;20766;-79
2022/11/09 03:49:03;;;;;;;11.00;3.20;;;;;;;;;;5113089;28;20410;-79
2022/11/09 03:51:29;;;;;;;10.35;2.80;;;;;;;;;;5129943;28;20439;-79
2022/11/09 03:53:55;;;;;;;11.82;2.97;;;;;;;;;;5094182;28;20418;-79
2022/11/09 03:56:21;;;;;;;10.85;2.55;;;;;;;;;;5112297;28;21025;-78
2022/11/09 03:58:47;;;;;;;10.82;2.85;;;;;;;;;;5113974;28;20402;-78
2022/11/09 04:01:13;;;;;;;14.15;2.97;;;;;;;;;;5096483;28;20486;-78
2022/11/09 04:03:39;;;;;;;13.48;3.10;;;;;;;;;;5095319;28;20414;-79
2022/11/09 04:06:08;;;;;;;12.00;3.10;;;;;;;;;;5095565;28;20505;-78
2022/11/09 04:08:34;;;;;;;10.35;2.80;;;12.30;99.90;;;;;;5111560;28;20528;-78
2022/11/09 04:11:00;;;;;;;10.02;3.00;;;;;;;;;;5113953;28;20489;-78
2022/11/09 04:13:26;;;;;;;8.52;2.63;;;;;;;;;;5111380;28;20418;-79
2022/11/09 04:15:52;;;;;;;11.97;2.80;;;;;;;;;;5112676;28;20551;-78
2022/11/09 04:18:18;;;;;;;9.93;2.65;;;;;;;;;;5099487;27;20419;-78
2022/11/09 04:20:44;;;;;;;12.07;2.50;;;;;;;;;;5100165;27;20625;-78
2022/11/09 04:23:11;;;;;;;11.25;2.53;;;;;;;;;;5114921;27;20426;-78
2022/11/09 04:25:38;;;;;;;7.60;2.53;;;;;;;;;;5100756;27;20466;-78
2022/11/09 04:28:05;;;;;;;11.77;2.63;;;;;;;;;;5114897;27;20419;-79
2022/11/09 04:30:32;;;;;;;12.47;2.63;;;;;;;;;;5100848;27;20800;-79
2022/11/09 04:32:59;;;;;;;12.88;2.63;;;;;;;;;;5113563;27;20437;-78
2022/11/09 04:35:26;;;;;;;9.85;2.40;;;;;;;;;;5133814;27;20505;-78
2022/11/09 04:38:05;;;;;;;12.57;2.70;;;;;;;;;;5096215;28;20423;-78
2022/11/09 04:40:32;;;;;;;9.30;2.60;;;11.70;99.90;;;;;;5097487;27;20589;-78
2022/11/09 04:42:59;;;;;;;11.13;2.70;;;;;;;;;;5096210;27;20411;-78
2022/11/09 04:45:26;;;;;;;11.77;2.70;;;;;;;;;;5117617;27;20451;-78
2022/11/09 04:47:56;;;;;;;12.20;3.40;;;;;;;;;;5114953;27;20426;-78
2022/11/09 04:50:22;;;;;;;12.02;3.25;;;;;;;;;;5113796;27;20484;-78
2022/11/09 04:52:48;;;;;;;10.75;2.80;;;;;;;;;;5112562;27;20473;-79
2022/11/09 04:55:14;;;;;;;10.57;3.15;;;;;;;;;;5112955;27;20561;-78
2022/11/09 04:57:40;;;;;;;12.50;3.22;;;;;;;;;;5082484;27;20811;-78
2022/11/09 05:00:09;;;;;;;11.43;3.22;;;;;;;;;;5116605;27;20760;-78
2022/11/09 05:02:35;;;;;;;9.05;2.95;;;;;;;;;;5116162;27;20422;-78
2022/11/09 05:05:01;;;;;;;10.60;2.85;;;;;;;;;;5099103;27;20431;-78
2022/11/09 05:07:28;;;;;;;10.85;3.00;;;;;;;;;;5114375;27;20467;-79
2022/11/09 05:09:53;;;;;;;10.63;3.00;;;12.00;99.90;;;;;;5115306;27;20446;-79
2022/11/09 05:12:19;;;;;;;10.88;3.00;;;;;;;;;;5114685;27;20838;-79
2022/11/09 05:14:45;;;;;;;11.13;2.95;;;;;;;;;;5114795;27;20502;-78
2022/11/09 05:17:11;;;;;;;12.25;3.15;;;;;;;;;;5115722;27;20901;-79
2022/11/09 05:19:37;;;;;;;10.43;3.10;;;;;;;;;;5095423;28;20420;-78
2022/11/09 05:24:50;;;;;;;11.07;3.25;;;;;;;;;;5109870;27;20431;-78
2022/11/09 05:27:16;;;;;;;10.57;3.17;;;;;;;;;;5114393;27;20430;-78
2022/11/09 05:29:42;;;;;;;9.43;2.70;;;;;;;;;;5085883;28;20428;-78
2022/11/09 05:32:08;;;;;;;12.53;3.10;;;;;;;;;;5096988;27;20419;-78
2022/11/09 05:34:34;;;;;;;7.97;2.75;;;;;;;;;;5105899;27;20470;-78
2022/11/09 05:37:01;;;;;;;9.98;3.25;;;;;;;;;;5110890;28;20459;-78
2022/11/09 05:39:26;;;;;;;8.95;3.10;;;12.10;99.90;;;;;;5110027;28;20446;-78
2022/11/09 05:41:52;;;;;;;12.23;3.10;;;;;;;;;;5094632;28;20468;-78
2022/11/09 05:44:18;;;;;;;11.13;3.23;;;;;;;;;;5079494;28;20440;-76
2022/11/09 05:46:44;;;;;;;10.82;2.80;;;;;;;;;;5107053;28;20468;-76
2022/11/09 05:49:10;;;;;;;11.13;3.03;;;;;;;;;;5109511;28;20419;-77
2022/11/09 05:51:37;;;;;;;12.48;3.20;;;;;;;;;;5094740;28;20480;-76
2022/11/09 05:54:03;;;;;;;9.63;3.43;;;;;;;;;;5109499;28;20422;-76
2022/11/09 05:56:29;;;;;;;11.75;3.33;;;;;;;;;;5111358;28;20857;-77
2022/11/09 05:58:56;;;;;;;10.13;3.15;;;;;;;;;;5107387;28;20478;-77
2022/11/09 06:01:22;;;;;;;12.43;3.35;;;;;;;;;;5088248;28;20413;-77
2022/11/09 06:03:48;;;;;;;14.23;3.72;;;;;;;;;;5103641;28;20502;-77
2022/11/09 06:06:16;;;;;;;11.00;3.35;;;;;;;;;;5112231;28;20407;-78
2022/11/09 06:08:42;;;;;;;10.43;3.13;;;;;;;;;;5110190;28;20449;-77
2022/11/09 06:11:09;;;;;;;8.23;2.97;;;;;;;;;;5111159;28;20427;-78
2022/11/09 06:13:35;;;;;;;11.38;3.10;;;;;;;;;;5107434;28;20424;-77
2022/11/09 06:16:03;;;;;;;7.80;2.67;;;;;;;;;;5110938;28;20427;-78
2022/11/09 06:18:30;;;;;;;11.00;2.90;;;11.80;99.90;;;;;;5110493;28;20538;-77
2022/11/09 06:20:57;;;;;;;12.18;3.78;;;;;;;;;;5089619;28;20953;-77
2022/11/09 06:23:28;;;;;;;9.68;2.97;;;;;;;;;;5110745;28;20435;-77
2022/11/09 06:26:10;;;;;;;10.00;3.00;;;11.70;99.90;;;;;;5106989;28;20424;-77
2022/11/09 06:28:40;;;;;;;11.80;2.97;;;11.30;99.90;;;;;;5090929;28;20955;-77
2022/11/09 06:31:12;;;;;;;12.20;3.47;;;11.70;99.90;;;;;;5090977;28;21043;-77
2022/11/09 06:33:38;;;;;;;10.35;3.05;;;;;;;;;;5109878;28;20433;-79
2022/11/09 06:36:04;;;;;;;9.10;2.60;;;;;;;;;;5109961;28;20451;-78
2022/11/09 06:38:31;;;;;;;10.82;3.13;;;;;;;;;;5088378;28;21014;-77
2022/11/09 06:40:58;;;;;;;10.97;3.27;;;11.60;99.90;;;;;;5089628;28;20443;-78
2022/11/09 06:43:25;;;;;;;9.18;3.00;;;;;;;;;;5090241;28;20424;-78
2022/11/09 06:45:51;;;;;;;10.40;3.00;;;;;;;;;;5110069;28;20455;-78
2022/11/09 06:48:17;;;;;;;10.57;2.95;;;;;;;;;;5093829;28;20920;-77
2022/11/09 06:50:43;;;;;;;8.97;2.90;;;;;;;;;;5108289;28;20439;-78
2022/11/09 06:53:10;;;;;;;8.45;2.78;;;;;;;;;;5125801;27;20420;-78
2022/11/09 06:55:37;;;;;;;13.75;2.83;;;11.50;99.90;;;;;;5103509;28;20492;-78
2022/11/09 06:58:08;;;;;;;11.40;2.92;;;11.80;99.90;;;;;;5103681;28;20444;-78
2022/11/09 07:00:34;;;;;;;9.82;3.05;;;;;;;;;;5108185;28;20420;-79
2022/11/09 07:03:00;;;;;;;11.20;3.23;;;;;;;;;;5109512;28;20427;-78
2022/11/09 07:05:26;;;;;;;10.10;2.70;;;;;;;;;;5106646;28;20488;-81
2022/11/09 07:07:52;;;;;;;15.18;3.35;;;;;;;;;;5093535;28;20423;-82
2022/11/09 07:10:19;;;;;;;11.02;2.88;;;;;;;;;;5078649;28;20467;-80
2022/11/09 07:12:45;;;;;;;12.10;2.60;;;;;;;;;;5107307;28;20438;-80
2022/11/09 07:15:11;;;;;;;10.63;2.50;;;;;;;;;;5106477;28;20431;-80
2022/11/09 07:17:38;;;;;;;12.18;2.60;;;;;;;;;;5109779;28;20416;-80
2022/11/09 07:20:05;;;;;;;9.55;2.42;;;;;;;;;;5086132;28;20951;-79
2022/11/09 07:22:33;;;;;;;12.30;2.72;;;;;;;;;;5109130;28;20409;-80
2022/11/09 07:24:59;;;;;;;10.27;2.38;;;;;;;;;;5091313;28;20446;-79
2022/11/09 07:27:26;;;;;;;10.40;2.60;;;;;;;;;;5093688;28;20930;-80
2022/11/09 07:29:52;;;;;;;10.90;2.67;;;;;;;;;;5107424;28;20499;-80
2022/11/09 07:32:18;;;;;;;10.30;3.33;;;;;;;;;;5110761;28;20404;-82
2022/11/09 07:34:45;;;;;;;10.95;2.50;;;;;;;;;;5112024;28;20435;-80
2022/11/09 07:37:11;;;;;;;10.55;2.60;;;;;;;;;;5115983;28;20429;-79
2022/11/09 07:39:37;;;;;;;10.70;2.72;;;;;;;;;;5113035;28;20419;-80
2022/11/09 07:42:03;;;;;;;10.60;3.17;;;;;;;;;;5115665;28;20412;-80
2022/11/09 07:44:29;;;;;;;14.18;2.75;;;;;;;;;;5107337;28;20414;-79
2022/11/09 07:46:55;;;;;;;11.10;2.55;;;;;;;;;;5110478;28;20491;-80
2022/11/09 07:49:21;;;;;;;11.77;2.72;;;;;;;;;;5083558;28;20420;-80
2022/11/09 07:51:47;;;;;;;9.15;2.70;;;;;;;;;;5115345;27;20420;-81
2022/11/09 07:54:13;;;;;;;12.38;2.83;;;;;;;;;;5119944;27;20419;-81
2022/11/09 07:56:39;;;;;;;15.48;2.90;;;;;;;;;;5100757;27;20505;-80
2022/11/09 07:59:05;;;;;;;11.68;2.88;;;;;;;;;;5101196;27;20928;-79
2022/11/09 08:01:32;;;;;;;11.30;3.10;;;;;;;;;;5116829;27;20449;-80
2022/11/09 08:03:58;;;;;;;10.88;2.83;;;;;;;;;;5102726;27;20411;-81
2022/11/09 08:06:26;;;;;;;12.30;2.70;;;;;;;;;;5120177;27;20417;-80
2022/11/09 08:08:56;;;;;;;11.95;3.15;;;;;;;;;;5101482;27;20429;-80
2022/11/09 08:11:23;;;;;;;10.93;2.60;;;;;;;;;;5105889;27;20402;-80
2022/11/09 08:13:49;;;;;;;10.02;3.03;;;;;;;;;;5116198;27;20442;-79
2022/11/09 08:16:15;;;;;;;12.07;2.60;;;;;;;;;;5099184;27;20410;-81
2022/11/09 08:18:41;;;;;;;11.60;3.13;;;;;;;;;;5115908;27;20809;-81
2022/11/09 08:21:07;;;;;;;13.13;3.15;;;;;;;;;;5080866;27;22228;-80
2022/11/09 08:23:33;;;;;;;14.73;3.28;;;;;;;;;;5100523;27;20406;-81
2022/11/09 08:26:03;;;;;;;10.68;3.17;;;12.20;99.90;;;;;;5100597;27;20472;-81
2022/11/09 08:28:29;;;;;;;8.98;2.70;;;;;;;;;;5118151;27;20767;-80
2022/11/09 08:30:56;;;;;;;10.45;2.60;;;;;;;;;;5099926;28;20420;-81
2022/11/09 08:33:23;;;;;;;11.00;2.70;;;;;;;;;;5098203;27;20416;-81
2022/11/09 08:35:49;;;;;;;11.57;3.03;;;;;;;;;;5110785;27;20420;-79
2022/11/09 08:38:15;;;;;;;11.70;2.60;;;;;;;;;;5115298;27;20477;-81
2022/11/09 08:40:41;;;;;;;9.43;2.60;;;;;;;;;;5100654;27;20410;-81
2022/11/09 08:43:07;;;;;;;11.40;3.38;;;;;;;;;;5096478;28;20448;-81
2022/11/09 08:45:35;;;;;;;10.02;3.10;;;12.50;99.90;;;;;;5108745;27;20413;-80
2022/11/09 08:48:01;;;;;;;9.02;2.58;;;;;;;;;;5112053;27;20414;-81
2022/11/09 08:50:28;;;;;;;13.32;3.10;;;12.60;99.90;;;;;;5099445;27;20418;-81
2022/11/09 08:52:55;;;;;;;10.82;2.75;;;;;;;;;;5114344;27;20416;-80
2022/11/09 08:55:21;;;;;;;10.90;2.97;;;;;;;;;;5097719;27;20475;-80
2022/11/09 08:57:48;;;;;;;12.90;3.22;;;;;;;;;;5099791;27;20425;-81
2022/11/09 09:00:14;;;;;;;11.93;2.73;;;;;;;;;;5120992;27;20486;-81
2022/11/09 09:02:40;;;;;;;13.80;3.42;;;;;;;;;;5098637;27;20411;-81
2022/11/09 09:05:06;;;;;;;11.48;3.03;;;;;;;;;;5112924;27;20422;-80
2022/11/09 09:07:32;;;;;;;13.02;3.30;;;;;;;;;;5098423;27;21002;-79
2022/11/09 09:09:59;;;;;;;13.27;3.30;;;;;;;;;;5097380;27;20467;-80
2022/11/09 09:12:24;;;;;;;12.45;3.42;;;13.50;99.90;;;;;;5094747;27;20420;-80
2022/11/09 09:14:50;;;;;;;9.93;2.90;;;;;;;;;;5112679;27;20508;-79
2022/11/09 09:17:16;;;;;;;8.63;2.80;;;;;;;;;;5111052;27;20536;-80
2022/11/09 09:19:42;;;;;;;9.45;3.00;;;;;;;;;;5102209;27;20427;-80
2022/11/09 09:22:09;;;;;;;10.32;2.85;;;;;;;;;;5092937;27;20766;-80
2022/11/09 09:24:35;;;;;;;11.75;2.97;;;;;;;;;;5092335;28;20761;-80
2022/11/09 09:27:01;;;;;;;12.40;2.97;;;;;;;;;;5083576;27;20797;-79
2022/11/09 09:29:27;;;;;;;9.98;3.20;;;;;;;;;;5118118;27;20414;-79
2022/11/09 09:31:53;;;;;;;10.73;3.07;;;;;;;;;;5097028;27;20493;-80
2022/11/09 09:34:20;;;;;;;11.48;3.22;;;;;;;;;;5070177;28;20432;-79
2022/11/09 09:36:46;;;;;;;9.88;3.28;;;;;;;;;;5082489;28;20443;-80
2022/11/09 09:39:11;;;;;;;11.25;2.95;;;13.70;99.90;;;;;;5100051;27;20965;-79
2022/11/09 09:41:44;;;;;;;11.63;3.20;;;14.00;99.90;;;;;;5114960;27;20418;-80
2022/11/09 09:44:35;;;;;;;10.20;3.08;;;14.10;99.90;;;;;;5096486;27;20933;-80
2022/11/09 09:47:04;;;;;;;12.73;3.13;;;;;;;;;;5099652;27;20941;-80
2022/11/09 09:49:35;;;;;;;14.30;3.85;;;14.20;99.90;;;;;;5094361;28;20444;-80
2022/11/09 09:52:36;;;;;;;12.80;3.27;;;14.10;99.90;;;;;;5090521;27;20416;-79
2022/11/09 09:55:02;;;;;;;12.25;2.95;;;;;;;;;;5098588;27;20418;-80
2022/11/09 09:57:29;;;;;;;13.80;3.20;;;14.10;99.90;;;;;;5103826;27;20457;-80
2022/11/09 09:59:59;;;;;;;11.55;3.05;;;13.80;99.90;;;;;;5102668;27;20410;-80
2022/11/09 10:02:27;;;;;;;11.93;3.45;;;;;;;;;;5110698;27;20759;-80
2022/11/09 10:04:55;;;;;;;12.15;4.18;;;;;;;;;;5094619;27;20515;-80
2022/11/09 10:07:44;;;;;;;20.63;4.47;;;;;;;;;;5098660;27;20539;-80
2022/11/09 10:10:10;;;;;;;12.77;3.55;;;;;;;;;;5103487;27;20914;-81
2022/11/09 10:12:39;;;;;;;11.90;3.70;;;;;;;;;;5116022;27;20410;-82
2022/11/09 10:15:14;;;;;;;14.45;4.75;;;;;;;;;;5097057;27;20480;-82
2022/11/09 10:17:40;;;;;;;12.23;3.83;;;;;;;;;;5114752;27;20439;-80
2022/11/09 10:20:07;;;;;;;12.63;4.20;;;;;;;;;;5114237;27;20529;-81
2022/11/09 10:22:52;;;;;;;13.32;3.88;;;;;;;;;;5090777;28;20553;-80
2022/11/09 10:25:23;;;;;;;11.57;3.30;;;;;;;;;;5109665;27;20579;-80
2022/11/09 10:27:56;;;;;;;11.85;4.20;;;;;;;;;;5105024;27;20498;-81
2022/11/09 10:30:23;;;;;;;13.45;3.60;;;;;;;;;;5095115;27;20449;-81
2022/11/09 10:33:10;;;;;;;12.33;3.63;;;;;;;;;;5091888;28;20722;-80
2022/11/09 10:35:55;;;;;;;10.57;3.90;;;14.10;99.90;;;;;;5085116;28;20527;-80
2022/11/09 10:38:25;;;;;;;12.70;4.03;;;;;;;;;;5093211;27;20973;-80
2022/11/09 10:41:05;;;;;;;13.20;4.40;;;14.00;99.90;;;;;;5095137;27;20426;-80
2022/11/09 10:43:31;;;;;;;13.27;4.35;;;;;;;;;;5108053;27;20425;-80
2022/11/09 10:46:04;;;;;;;9.90;3.67;;;14.00;99.90;;;;;;5101138;27;20422;-81
2022/11/09 10:48:37;;;;;;;13.25;3.60;;;14.00;99.90;;;;;;5098349;27;20425;-79
2022/11/09 10:51:04;;;;;;;11.45;3.83;;;14.20;99.90;;;;;;5098838;27;20417;-81
2022/11/09 10:53:32;;;;;;;9.05;3.28;;;;;;;;;;5096101;27;20401;-81
2022/11/09 10:56:04;;;;;;;10.67;3.40;;;;;;;;;;5093906;28;20461;-80
2022/11/09 10:58:51;;;;;;;12.18;3.30;;;14.00;99.90;;;;;;5107838;27;20415;-80
2022/11/09 11:01:22;;;;;;;12.82;4.00;;;14.10;99.90;;;;;;5110052;27;20497;-80
2022/11/09 11:03:49;;;;;;;9.52;3.40;;;;;;;;;;5113083;27;20820;-80
2022/11/09 11:06:17;;;;;;;14.30;3.85;;;;;;;;;;5125851;27;20416;-81
2022/11/09 11:08:48;;;;;;;11.15;3.95;;;;;;;;;;5107362;27;20750;-81
2022/11/09 11:11:27;;;;;;;13.27;3.73;;;14.00;99.90;;;;;;5094003;28;21022;-81
2022/11/09 11:14:24;;;;;;;12.77;3.63;;;14.10;99.90;;;;;;5121432;27;20929;-81
2022/11/09 11:16:51;;;;;;;9.77;3.50;;;;;;;;;;5128378;27;20450;-81
2022/11/09 11:19:30;;;;;;;11.48;3.28;;;;;;;;;;5113194;27;20487;-80
2022/11/09 11:22:18;;;;;;;9.73;3.20;;;13.90;99.90;;;;;;5100230;27;20894;-81
2022/11/09 11:24:53;;;;;;;12.27;3.72;;;;;;;;;;5104132;27;20411;-80
2022/11/09 11:27:34;;;;;;;10.70;3.40;;;14.00;99.90;;;;;;5114504;27;20446;-80
2022/11/09 11:30:07;;;;;;;12.07;3.70;;;;;;;;;;5111540;27;20466;-81
2022/11/09 11:32:33;;;;;;;10.90;3.50;;;;;;;;;;5094155;28;20412;-83
2022/11/09 11:34:59;;;;;;;13.52;3.90;;;;;;;;;;5109050;27;20952;-81
2022/11/09 11:37:27;;;;;;;13.13;3.85;;;;;;;;;;5089992;28;20485;-81
2022/11/09 11:40:24;;;;;;;12.82;3.92;;;14.00;99.90;;;;;;5114222;28;20422;-81
2022/11/09 11:42:50;;;;;;;12.93;4.30;;;;;;;;;;5103567;28;20536;-80
2022/11/09 11:45:21;;;;;;;10.38;3.70;;;;;;;;;;5111394;28;20416;-80
2022/11/09 11:48:01;;;;;;;9.45;3.53;;;13.90;99.90;;;;;;5105745;28;20454;-75
2022/11/09 11:50:45;;;;;;;12.20;3.90;;;;;;;;;;5106139;28;20443;-75
2022/11/09 11:53:18;;;;;;;12.30;4.30;;;;;;;;;;5091603;28;20441;-75
2022/11/09 11:55:47;;;;;;;12.13;3.88;;;;;;;;;;5112722;28;20414;-75
2022/11/09 11:58:27;;;;;;;13.07;4.70;;;;;;;;;;5112100;28;20534;-74
2022/11/09 12:01:01;;;;;;;12.63;4.20;;;13.90;99.90;;;;;;5081884;28;20471;-74
2022/11/09 12:03:42;;;;;;;12.80;4.22;;;;;;;;;;5110535;28;20559;-74
2022/11/09 12:06:15;;;;;;;11.57;4.65;;;;;;;;;;5093198;28;20430;-76
2022/11/09 12:08:41;;;;;;;14.20;4.55;;;;;;;;;;5094670;28;20416;-75
2022/11/09 12:11:22;;;;;;;13.65;4.22;;;;;;;;;;5110636;28;20428;-75
2022/11/09 12:13:58;;;;;;;14.55;4.55;;;;;;;;;;5088302;27;20512;-76
2022/11/09 12:16:34;;;;;;;14.07;4.68;;;13.80;99.90;;;;;;5095233;28;20491;-77
2022/11/09 12:19:00;;;;;;;11.48;4.45;;;;;;;;;;5091316;28;20420;-77
2022/11/09 12:21:31;;;;;;;15.43;4.75;;;;;;;;;;5089522;28;20500;-77
2022/11/09 12:24:03;;;;;;;10.68;4.32;;;;;;;;;;5109564;28;20477;-75
2022/11/09 12:26:40;;;;;;;12.57;4.18;;;13.60;99.90;;;;;;5095814;28;20423;-76
2022/11/09 12:29:22;;;;;;;10.23;4.35;;;13.90;99.90;;;;;;5118835;27;20422;-76
2022/11/09 12:31:57;;;;;;;10.00;4.25;;;;;;;;;;5094217;28;20422;-76
2022/11/09 12:34:30;;;;;;;15.05;4.40;;;;;;;;;;5111225;28;20430;-75
2022/11/09 12:37:12;;;;;;;13.23;4.70;;;;;;;;;;5108534;28;20471;-76
2022/11/09 12:39:40;;;;;;;13.63;3.85;;;;;;;;;;5093012;28;20428;-76
2022/11/09 12:42:24;;;;;;;11.45;4.13;;;13.90;99.90;;;;;;5095897;27;20424;-82
2022/11/09 12:44:59;;;;;;;13.63;4.18;;;;;;;;;;5116528;27;20417;-81
2022/11/09 12:47:35;;;;;;;13.07;4.18;;;13.70;99.90;;;;;;5116379;27;20506;-81
2022/11/09 12:50:02;;;;;;;11.25;3.90;;;;;;;;;;5090183;28;20416;-81
2022/11/09 12:52:29;;;;;;;10.70;3.80;;;13.50;99.90;;;;;;5116929;27;20403;-81
2022/11/09 12:54:59;;;;;;;12.60;4.22;;;13.40;99.90;;;;;;5090043;27;20448;-80
2022/11/09 12:57:29;;;;;;;10.35;3.78;;;13.40;99.90;;;;;;5098804;27;20425;-81
2022/11/09 12:59:56;;;;;;;8.57;3.10;;;;;;;;;;5117714;27;20473;-80
2022/11/09 13:02:55;;;;;;;11.48;3.40;;;13.20;99.90;;;;;;5097124;28;20408;-80
2022/11/09 13:05:31;;;;;;;15.48;3.50;;;;;;;;;;5115692;27;20777;-82
2022/11/09 13:08:00;;;;;;;11.48;3.40;;;13.20;99.90;;;;;;5096478;27;20414;-81
2022/11/09 13:10:31;;;;;;;9.77;3.08;;;;;;;;;;5112058;27;20418;-80
2022/11/09 13:13:05;;;;;;;9.18;2.40;;;;;;;;;;5110755;27;20422;-79
2022/11/09 13:15:35;;;;;;;11.32;2.88;;;;;;;;;;5108324;27;20427;-81
2022/11/09 13:18:03;;;;;;;11.40;2.78;;;;;;;;;;5094971;27;20440;-81
2022/11/09 13:20:36;;;;;;;8.63;2.38;;;;;;;;;;5110145;27;20501;-80
2022/11/09 13:23:03;;;;;;;7.72;2.58;;;;;;;;;;5111557;27;20814;-80
2022/11/09 13:25:46;;;;;;;7.55;2.38;;;;;;;;;;5090422;27;20551;-80
2022/11/09 13:28:27;;;;;;;8.77;2.72;;;;;;;;;;5104794;27;21148;-80
2022/11/09 13:30:59;;;;;;;7.45;2.00;;;13.30;99.90;;;;;;5089192;27;20773;-80
2022/11/09 13:33:25;;;;;;;6.75;2.30;;;;;;;;;;5093951;27;20403;-80
2022/11/09 13:35:52;;;;;;;7.43;2.33;;;;;;;;;;5110327;27;20487;-81
2022/11/09 13:38:25;;;;;;;7.50;2.60;;;13.50;99.90;;;;;;5112051;27;20421;-81
2022/11/09 13:40:58;;;;;;;7.25;2.15;;;13.50;99.90;;;;;;5112045;27;20419;-82
2022/11/09 13:43:38;;;;;;;6.95;2.50;;;13.70;99.90;;;;;;5111661;27;20426;-82
2022/11/09 13:46:13;;;;;;;9.13;2.30;;;;;;;;;;5105190;27;20517;-82
2022/11/09 13:48:48;;;;;;;6.50;2.25;;;13.70;99.90;;;;;;5128116;27;20422;-81
2022/11/09 13:51:35;;;;;;;8.23;2.30;;;13.40;99.90;;;;;;5110468;27;20426;-80
2022/11/09 13:54:03;;;;;;;7.63;2.00;;;13.50;99.90;;;;;;5108650;27;21053;-81
2022/11/09 13:56:30;;;;;;;9.63;2.30;;;;;;;;;;5114414;27;20423;-81
2022/11/09 13:59:15;;;;;;;8.80;2.13;;;;;;;;;;5113384;27;20421;-80
2022/11/09 14:01:54;;;;;;;7.38;2.20;;;;;;;;;;5114895;27;20762;-80
2022/11/09 14:04:22;;;;;;;5.13;1.90;;;13.50;99.90;;;;;;5112321;27;20426;-81
2022/11/09 14:06:49;;;;;;;4.93;1.55;;;;;;;;;;5103582;27;20414;-81
2022/11/09 14:09:16;;;;;;;4.68;1.70;;;;;;;;;;5125724;27;20547;-81
2022/11/09 14:12:09;;;;;;;4.97;1.85;;;;;;;;;;5096639;27;20415;-81
2022/11/09 14:14:41;;;;;;;4.47;1.35;;;;;;;;;;5126854;27;20535;-81
2022/11/09 14:17:17;;;;;;;5.63;1.80;;;;;;;;;;5113284;27;20513;-81
2022/11/09 14:19:58;;;;;;;5.65;1.67;;;;;;;;;;5093293;28;20460;-81
2022/11/09 14:22:24;;;;;;;5.70;1.63;;;;;;;;;;5111212;27;20414;-81